Time;durP1;ratioP1;P1;durP2;ratioP2;P2;SDS_P1;SDS_P2;PMS_P1;PMS_P2;Temp;Humidity;BMP_temperature;BMP_pressure;BME280_temperature;BME280_humidity;BME280_pressure;Samples;Min_cycle;Max_cycle;Signal;HPM_P1;HPM_P2
2021/11/16 00:00:07;;;;;;;60.63;35.37;;;;;;;;;;2080985;28;20183;-63
2021/11/16 00:01:11;;;;;;;64.20;36.73;;;;;;;;;;2085127;28;20234;-61
2021/11/16 00:02:12;;;;;;;59.53;36.77;;;;;;;;;;2085512;28;20183;-66
2021/11/16 00:03:12;;;;;;;68.77;37.90;;;;;;;;;;2085275;28;20162;-60
2021/11/16 00:04:13;;;;;;;66.37;36.07;;;;;;;;;;2080302;28;20208;-64
2021/11/16 00:05:13;;;;;;;61.13;35.47;;;;;;;;;;2079956;28;20255;-64
2021/11/16 00:06:13;;;;;;;66.77;37.80;;;;;;;;;;2077083;28;20179;-64
2021/11/16 00:07:14;;;;;;;66.40;35.93;;;;;;;;;;2077025;28;20266;-63
2021/11/16 00:08:14;;;;;;;62.70;36.53;;;;;;;;;;2079178;28;20184;-65
2021/11/16 00:09:14;;;;;;;63.57;36.57;;;;;;;;;;2081157;28;20200;-63
2021/11/16 00:10:15;;;;;;;61.00;36.43;;;;;;;;;;2080671;28;20191;-60
2021/11/16 00:11:15;;;;;;;66.30;37.50;;;;;;;;;;2086842;28;20194;-63
2021/11/16 00:12:15;;;;;;;66.47;38.13;;;;;;;;;;2072900;28;20169;-63
2021/11/16 00:13:15;;;;;;;61.73;37.30;;;;;;;;;;2068636;28;20218;-63
2021/11/16 00:14:17;;;;;;;63.50;36.63;;;;;;;;;;2078645;28;20260;-63
2021/11/16 00:15:17;;;;;;;59.73;36.67;;;;;;;;;;2077562;28;20652;-64
2021/11/16 00:16:17;;;;;;;64.87;37.80;;;;;;;;;;2081614;28;20213;-64
2021/11/16 00:17:18;;;;;;;64.33;37.00;;;;;;;;;;2081056;28;20184;-64
2021/11/16 00:18:19;;;;;;;65.80;37.80;;;;;;;;;;2080653;28;20706;-63
2021/11/16 00:19:20;;;;;;;61.23;37.80;;;;;;;;;;2076886;28;20176;-63
2021/11/16 00:20:21;;;;;;;64.10;38.53;;;;;;;;;;2072499;28;20678;-65
2021/11/16 00:21:24;;;;;;;66.07;38.13;;;;;;;;;;2080399;28;20175;-64
2021/11/16 00:22:24;;;;;;;63.63;36.00;;;;;;;;;;2071894;28;20177;-63
2021/11/16 00:23:32;;;;;;;64.40;37.73;;;;;;;;;;2072556;28;20665;-63
2021/11/16 00:24:38;;;;;;;69.27;38.10;;;;;;;;;;2078938;28;20176;-64
2021/11/16 00:25:38;;;;;;;69.20;37.37;;;;;;;;;;2081712;28;20297;-63
2021/11/16 00:26:39;;;;;;;65.87;36.53;;;;;;;;;;2080992;28;20596;-64
2021/11/16 00:27:39;;;;;;;64.00;36.00;;;;;;;;;;2074231;28;20562;-64
2021/11/16 00:28:39;;;;;;;68.40;35.47;;;;;;;;;;2072773;28;20173;-65
2021/11/16 00:29:39;;;;;;;69.67;37.07;;;;;;;;;;2079520;28;20215;-63
2021/11/16 00:30:40;;;;;;;64.97;37.37;;;;;;;;;;2080460;28;20180;-63
2021/11/16 00:31:40;;;;;;;67.87;37.07;;;;;;;;;;2081074;28;20180;-64
2021/11/16 00:32:41;;;;;;;66.17;38.53;;;;;;;;;;2081112;28;20599;-63
2021/11/16 00:33:41;;;;;;;69.70;36.30;;;;;;;;;;2080556;28;20215;-64
2021/11/16 00:34:42;;;;;;;69.93;37.63;;;;;;;;;;2078563;28;20572;-65
2021/11/16 00:35:42;;;;;;;63.63;36.43;;;;;;;;;;2072680;28;20231;-65
2021/11/16 00:36:43;;;;;;;61.43;35.80;;;;;;;;;;2080480;28;20640;-57
2021/11/16 00:37:43;;;;;;;67.37;35.80;;;;;;;;;;2080595;28;20183;-65
2021/11/16 00:38:43;;;;;;;61.67;34.87;;;;;;;;;;2080746;28;20580;-62
2021/11/16 00:39:44;;;;;;;61.03;36.13;;;;;;;;;;2080754;28;20679;-65
2021/11/16 00:40:45;;;;;;;62.77;36.20;;;;;;;;;;2079479;28;20187;-64
2021/11/16 00:41:45;;;;;;;61.63;35.97;;;;;;;;;;2080551;28;20671;-60
2021/11/16 00:42:46;;;;;;;67.13;35.37;;;;;;;;;;2080059;28;20172;-63
2021/11/16 00:43:48;;;;;;;59.70;35.10;;;;;;;;;;2072539;28;20229;-66
2021/11/16 00:44:49;;;;;;;62.87;36.13;;;;;;;;;;2080512;28;20262;-65
2021/11/16 00:45:49;;;;;;;60.93;34.07;;;;;;;;;;2080776;28;20249;-64
2021/11/16 00:46:50;;;;;;;62.63;35.97;;;;;;;;;;2078619;28;20267;-63
2021/11/16 00:47:50;;;;;;;70.50;37.73;;;;;;;;;;2080812;28;20186;-65
2021/11/16 00:48:50;;;;;;;62.20;34.87;;;;;;;;;;2091371;22;20184;-61
2021/11/16 00:49:51;;;;;;;65.67;36.20;;;;;;;;;;2081108;28;20188;-57
2021/11/16 00:50:56;;;;;;;63.60;35.97;;;;;;;;;;2077418;28;20188;-56
2021/11/16 00:51:56;;;;;;;61.57;34.87;;;;;;;;;;2077127;28;20219;-53
2021/11/16 00:52:57;;;;;;;66.57;35.97;;;;;;;;;;2079936;28;20188;-55
2021/11/16 00:53:57;;;;;;;63.83;37.23;;;;;;;;;;2072750;28;20187;-56
2021/11/16 00:54:57;;;;;;;58.17;35.30;;;;;;;;;;2076096;28;20262;-56
2021/11/16 00:55:58;;;;;;;63.47;36.27;;;;;;;;;;2074259;28;20193;-58
2021/11/16 00:56:59;;;;;;;60.70;36.07;;;;;;;;;;2080102;28;20788;-57
2021/11/16 00:57:59;;;;;;;59.80;35.80;;;;;;;;;;2081160;28;20230;-58
2021/11/16 00:58:59;;;;;;;59.73;35.63;;;;;;;;;;2078929;28;20271;-57
2021/11/16 01:00:00;;;;;;;63.80;36.50;;;;;;;;;;2081271;28;20307;-54
2021/11/16 01:01:00;;;;;;;58.07;34.37;;;;;;;;;;2081457;28;20633;-56
2021/11/16 01:02:00;;;;;;;65.60;35.73;;;;;;;;;;2081428;28;20467;-56
2021/11/16 01:03:01;;;;;;;55.57;35.00;;;;;;;;;;2081245;28;20184;-56
2021/11/16 01:04:01;;;;;;;60.77;34.67;;;;;;;;;;2082875;28;20206;-57
2021/11/16 01:05:02;;;;;;;65.73;34.97;;;;;;;;;;2079776;28;20210;-61
2021/11/16 01:06:03;;;;;;;63.23;35.47;;;;;;;;;;2081062;28;20234;-59
2021/11/16 01:07:05;;;;;;;63.73;33.63;;;;;;;;;;2081101;28;20626;-56
2021/11/16 01:08:06;;;;;;;58.60;35.17;;;;;;;;;;2081680;28;20207;-56
2021/11/16 01:09:06;;;;;;;57.13;33.77;;;;;;;;;;2080758;28;20203;-56
2021/11/16 01:10:08;;;;;;;60.23;35.07;;;;;;;;;;2078230;28;20189;-54
2021/11/16 01:11:08;;;;;;;63.30;36.00;;;;;;;;;;2075265;28;20211;-54
2021/11/16 01:12:08;;;;;;;61.20;34.57;;;;;;;;;;2080007;28;20630;-55
2021/11/16 01:13:09;;;;;;;57.40;33.17;;;;;;;;;;2079339;28;20199;-56
2021/11/16 01:14:09;;;;;;;60.63;35.00;;;;;;;;;;2078087;28;20276;-58
2021/11/16 01:15:10;;;;;;;58.17;32.30;;;;;;;;;;2079652;28;20176;-54
2021/11/16 01:16:11;;;;;;;66.93;35.67;;;;;;;;;;2079346;28;20196;-53
2021/11/16 01:17:11;;;;;;;63.00;32.73;;;;;;;;;;2075498;28;20659;-57
2021/11/16 01:18:12;;;;;;;57.40;33.00;;;;;;;;;;2077326;28;20723;-54
2021/11/16 01:19:12;;;;;;;62.10;33.33;;;;;;;;;;2076913;28;20200;-55
2021/11/16 01:20:14;;;;;;;60.20;34.40;;;;;;;;;;2079204;28;20204;-58
2021/11/16 01:21:14;;;;;;;67.97;35.60;;;;;;;;;;2078683;28;20171;-54
2021/11/16 01:22:15;;;;;;;58.93;33.77;;;;;;;;;;2078854;28;20687;-55
2021/11/16 01:23:18;;;;;;;56.40;32.50;;;;;;;;;;2079125;28;20176;-55
2021/11/16 01:24:19;;;;;;;53.07;32.37;;;;;;;;;;2076866;28;20536;-54
2021/11/16 01:25:20;;;;;;;54.13;31.27;;;;;;;;;;2080583;28;20211;-58
2021/11/16 01:26:20;;;;;;;56.57;32.40;;;;;;;;;;2080079;28;20195;-57
2021/11/16 01:27:21;;;;;;;60.17;33.03;;;;;;;;;;2080860;28;20247;-55
2021/11/16 01:28:27;;;;;;;57.73;31.80;;;;;;;;;;2078006;28;20266;-57
2021/11/16 01:29:28;;;;;;;56.07;31.03;;;;;;;;;;2080167;28;20180;-54
2021/11/16 01:30:31;;;;;;;62.07;33.73;;;;;;;;;;2080485;28;20214;-56
2021/11/16 01:31:31;;;;;;;54.83;33.03;;;;;;;;;;2079988;28;20196;-56
2021/11/16 01:32:37;;;;;;;57.87;32.47;;;;;;;;;;2080387;28;20273;-58
2021/11/16 01:33:49;;;;;;;59.77;32.93;;;;;;;;;;2081052;28;20176;-57
2021/11/16 01:34:49;;;;;;;59.07;34.20;;;;;;;;;;2077335;28;20180;-55
2021/11/16 01:35:49;;;;;;;62.77;34.43;;;;;;;;;;2078286;28;20188;-55
2021/11/16 01:36:50;;;;;;;55.70;33.43;;;;;;;;;;2082958;28;20637;-55
2021/11/16 01:37:50;;;;;;;61.37;34.67;;;;;;;;;;2082045;28;20168;-55
2021/11/16 01:38:52;;;;;;;56.80;32.63;;;;;;;;;;2082295;28;20310;-53
2021/11/16 01:39:53;;;;;;;55.10;31.73;;;;;;;;;;2077472;28;20653;-54
2021/11/16 01:40:53;;;;;;;53.23;31.97;;;;;;;;;;2081851;28;20179;-53
2021/11/16 01:41:54;;;;;;;61.70;33.13;;;;;;;;;;2082469;28;20656;-55
2021/11/16 01:42:55;;;;;;;59.63;34.80;;;;;;;;;;2082926;28;20172;-57
2021/11/16 01:43:55;;;;;;;62.20;35.13;;;;;;;;;;2081755;28;20263;-54
2021/11/16 01:44:56;;;;;;;67.23;34.77;;;;;;;;;;2081610;28;20286;-55
2021/11/16 01:46:00;;;;;;;62.23;34.73;;;;;;;;;;2076833;28;20177;-56
2021/11/16 01:47:01;;;;;;;63.93;35.77;;;;;;;;;;2081534;28;20173;-54
2021/11/16 01:48:02;;;;;;;64.87;34.53;;;;;;;;;;2082832;28;20172;-56
2021/11/16 01:49:03;;;;;;;65.87;37.83;;;;;;;;;;2080521;28;20195;-54
2021/11/16 01:50:04;;;;;;;57.43;35.97;;;;;;;;;;2077002;28;20700;-57
2021/11/16 01:51:05;;;;;;;68.40;36.97;;;;;;;;;;2081926;28;20173;-56
2021/11/16 01:52:05;;;;;;;59.77;36.10;;;;;;;;;;2081804;28;20216;-57
2021/11/16 01:53:06;;;;;;;68.03;38.00;;;;;;;;;;2082989;28;20172;-55
2021/11/16 01:54:06;;;;;;;68.00;36.63;;;;;;;;;;2082222;28;20175;-56
2021/11/16 01:55:08;;;;;;;67.97;36.07;;;;;;;;;;2082252;28;20181;-57
2021/11/16 01:56:08;;;;;;;68.07;36.50;;;;;;;;;;2081290;28;20204;-54
2021/11/16 01:57:09;;;;;;;65.17;35.80;;;;;;;;;;2080628;28;20181;-57
2021/11/16 01:58:10;;;;;;;57.87;36.10;;;;;;;;;;2081681;28;20227;-57
2021/11/16 01:59:10;;;;;;;65.37;36.23;;;;;;;;;;2080338;28;20202;-57
2021/11/16 02:00:12;;;;;;;65.87;35.90;;;;;;;;;;2075371;28;20206;-52
2021/11/16 02:01:12;;;;;;;64.87;36.23;;;;;;;;;;2076875;28;20711;-57
2021/11/16 02:02:13;;;;;;;62.47;34.93;;;;;;;;;;2080953;28;20180;-56
2021/11/16 02:03:14;;;;;;;61.53;34.83;;;;;;;;;;2082335;28;20180;-57
2021/11/16 02:04:19;;;;;;;60.03;33.90;;;;;;;;;;2082121;28;20214;-57
2021/11/16 02:05:19;;;;;;;60.07;34.50;;;;;;;;;;2074693;28;20181;-57
2021/11/16 02:06:22;;;;;;;66.37;35.00;;;;;;;;;;2078531;28;20178;-56
2021/11/16 02:07:22;;;;;;;54.90;30.90;;;;;;;;;;2082622;28;20602;-58
2021/11/16 02:08:23;;;;;;;55.17;31.53;;;;;;;;;;2081986;28;20179;-55
2021/11/16 02:09:24;;;;;;;50.87;29.33;;;;;;;;;;2081639;28;20688;-59
2021/11/16 02:10:24;;;;;;;55.97;31.77;;;;;;;;;;2081239;28;20250;-57
2021/11/16 02:11:25;;;;;;;52.67;31.10;;;;;;;;;;2073271;28;20226;-56
2021/11/16 02:12:25;;;;;;;49.83;29.93;;;;;;;;;;2073301;28;20192;-57
2021/11/16 02:13:26;;;;;;;55.27;30.80;;;;;;;;;;2072398;28;20326;-56
2021/11/16 02:14:26;;;;;;;57.27;30.80;;;;;;;;;;2081840;28;20263;-55
2021/11/16 02:15:26;;;;;;;51.27;29.60;;;;;;;;;;2081961;28;20553;-58
2021/11/16 02:16:27;;;;;;;49.93;30.87;;;;;;;;;;2079802;28;20199;-55
2021/11/16 02:17:27;;;;;;;57.00;31.17;;;;;;;;;;2078952;28;20267;-56
2021/11/16 02:18:28;;;;;;;55.33;30.93;;;;;;;;;;2081751;28;20184;-56
2021/11/16 02:19:28;;;;;;;52.13;31.13;;;;;;;;;;2079138;28;20174;-56
2021/11/16 02:20:29;;;;;;;49.17;29.97;;;;;;;;;;2081259;28;20239;-56
2021/11/16 02:21:29;;;;;;;56.67;31.53;;;;;;;;;;2079798;28;20172;-53
2021/11/16 02:22:31;;;;;;;58.03;33.20;;;;;;;;;;2080705;28;20259;-55
2021/11/16 02:23:32;;;;;;;53.83;31.57;;;;;;;;;;2081397;28;20565;-54
2021/11/16 02:24:32;;;;;;;56.50;30.63;;;;;;;;;;2081946;28;20169;-56
2021/11/16 02:25:33;;;;;;;52.77;30.83;;;;;;;;;;2082276;28;20215;-59
2021/11/16 02:26:35;;;;;;;53.30;31.83;;;;;;;;;;2081928;28;20246;-57
2021/11/16 02:27:35;;;;;;;58.03;33.67;;;;;;;;;;2078492;28;20179;-54
2021/11/16 02:28:36;;;;;;;57.97;32.87;;;;;;;;;;2081385;28;20184;-57
2021/11/16 02:29:36;;;;;;;54.20;32.63;;;;;;;;;;2081272;28;20173;-55
2021/11/16 02:30:36;;;;;;;57.03;31.40;;;;;;;;;;2080246;28;20172;-57
2021/11/16 02:31:37;;;;;;;54.53;31.37;;;;;;;;;;2076935;28;20175;-57
2021/11/16 02:32:38;;;;;;;56.17;31.47;;;;;;;;;;2080689;28;20179;-56
2021/11/16 02:33:38;;;;;;;52.90;29.57;;;;;;;;;;2081880;28;20183;-56
2021/11/16 02:34:39;;;;;;;53.53;30.87;;;;;;;;;;2081640;28;20684;-55
2021/11/16 02:35:39;;;;;;;49.20;30.07;;;;;;;;;;2074890;28;20193;-54
2021/11/16 02:36:41;;;;;;;47.20;28.20;;;;;;;;;;2076319;28;20173;-57
2021/11/16 02:37:41;;;;;;;48.90;29.97;;;;;;;;;;2084826;28;20254;-56
2021/11/16 02:38:42;;;;;;;51.40;29.10;;;;;;;;;;2084635;28;20210;-59
2021/11/16 02:39:43;;;;;;;46.87;27.53;;;;;;;;;;2083710;28;20641;-56
2021/11/16 02:40:43;;;;;;;47.53;28.00;;;;;;;;;;2083476;28;20161;-56
2021/11/16 02:41:48;;;;;;;47.40;29.00;;;;;;;;;;2075626;28;20188;-55
2021/11/16 02:42:49;;;;;;;45.63;26.90;;;;;;;;;;2074313;28;20268;-56
2021/11/16 02:43:49;;;;;;;44.87;26.97;;;;;;;;;;2081256;28;20164;-54
2021/11/16 02:44:49;;;;;;;46.87;27.83;;;;;;;;;;2080937;28;20224;-53
2021/11/16 02:45:51;;;;;;;47.47;27.60;;;;;;;;;;2082001;28;20183;-53
2021/11/16 02:46:52;;;;;;;44.73;27.00;;;;;;;;;;2076097;28;20470;-53
2021/11/16 02:47:52;;;;;;;44.87;26.60;;;;;;;;;;2081303;28;20211;-56
2021/11/16 02:48:52;;;;;;;44.23;26.93;;;;;;;;;;2075855;28;20200;-54
2021/11/16 02:49:54;;;;;;;41.67;27.37;;;;;;;;;;2081587;28;20624;-56
2021/11/16 02:50:56;;;;;;;43.07;25.57;;;;;;;;;;2080611;28;20238;-54
2021/11/16 02:51:56;;;;;;;48.93;28.37;;;;;;;;;;2082493;28;20224;-56
2021/11/16 02:52:56;;;;;;;48.03;28.80;;;;;;;;;;2076260;28;20644;-56
2021/11/16 02:53:57;;;;;;;47.60;28.50;;;;;;;;;;2082329;28;20160;-55
2021/11/16 02:54:57;;;;;;;51.43;29.27;;;;;;;;;;2081683;28;20225;-58
2021/11/16 02:55:58;;;;;;;43.30;25.93;;;;;;;;;;2081307;28;20231;-57
2021/11/16 02:56:58;;;;;;;48.83;27.47;;;;;;;;;;2082244;28;20204;-57
2021/11/16 02:57:59;;;;;;;49.40;29.03;;;;;;;;;;2081196;28;20172;-57
2021/11/16 02:58:59;;;;;;;44.92;25.65;;;;;;;;;;2081327;28;20200;-58
2021/11/16 03:00:00;;;;;;;43.00;26.50;;;;;;;;;;2080243;28;20160;-53
2021/11/16 03:01:09;;;;;;;46.70;28.80;;;;;;;;;;2075133;28;20192;-58
2021/11/16 03:02:10;;;;;;;43.47;26.73;;;;;;;;;;2079080;28;20173;-56
2021/11/16 03:03:10;;;;;;;46.73;26.13;;;;;;;;;;2075978;28;20238;-55
2021/11/16 03:04:18;;;;;;;45.27;26.10;;;;;;;;;;2073499;28;20208;-56
2021/11/16 03:05:18;;;;;;;42.10;25.07;;;;;;;;;;2082027;28;20164;-54
2021/11/16 03:06:18;;;;;;;43.47;24.57;;;;;;;;;;2082262;28;20191;-56
2021/11/16 03:07:30;;;;;;;46.80;25.37;;;;;;;;;;2082513;28;20254;-57
2021/11/16 03:08:30;;;;;;;42.73;25.63;;;;;;;;;;2081470;28;20218;-54
2021/11/16 03:09:33;;;;;;;38.27;24.57;;;;;;;;;;2081779;28;20191;-57
2021/11/16 03:10:33;;;;;;;46.23;26.50;;;;;;;;;;2082116;28;20237;-56
2021/11/16 03:11:34;;;;;;;45.47;25.67;;;;;;;;;;2076767;28;20653;-58
2021/11/16 03:12:34;;;;;;;40.57;24.10;;;;;;;;;;2081465;28;20219;-57
2021/11/16 03:13:38;;;;;;;37.80;23.70;;;;;;;;;;2080960;28;20235;-57
2021/11/16 03:14:38;;;;;;;42.27;26.37;;;;;;;;;;2082045;28;20275;-55
2021/11/16 03:15:41;;;;;;;39.07;23.67;;;;;;;;;;2080772;28;20180;-58
2021/11/16 03:16:41;;;;;;;37.57;24.23;;;;;;;;;;2081506;28;20782;-58
2021/11/16 03:17:41;;;;;;;41.50;25.90;;;;;;;;;;2081723;28;20172;-57
2021/11/16 03:18:45;;;;;;;46.13;26.27;;;;;;;;;;2081776;28;20255;-56
2021/11/16 03:19:46;;;;;;;40.00;24.30;;;;;;;;;;2079181;28;20185;-56
2021/11/16 03:20:46;;;;;;;42.03;25.87;;;;;;;;;;2080667;28;20207;-57
2021/11/16 03:21:57;;;;;;;38.57;25.13;;;;;;;;;;2077999;28;20212;-55
2021/11/16 03:23:10;;;;;;;37.63;24.30;;;;;;;;;;2074690;28;20157;-54
2021/11/16 03:24:12;;;;;;;38.27;23.13;;;;;;;;;;2077227;28;20258;-54
2021/11/16 03:25:13;;;;;;;37.07;23.53;;;;;;;;;;2082086;28;20182;-56
2021/11/16 03:26:14;;;;;;;43.63;24.40;;;;;;;;;;2082355;28;20540;-53
2021/11/16 03:27:16;;;;;;;36.43;24.63;;;;;;;;;;2081780;28;20222;-53
2021/11/16 03:28:17;;;;;;;37.60;25.13;;;;;;;;;;2081422;28;20179;-54
2021/11/16 03:29:22;;;;;;;39.83;25.00;;;;;;;;;;2081298;28;20230;-54
2021/11/16 03:30:23;;;;;;;41.93;24.13;;;;;;;;;;2081712;28;20183;-56
2021/11/16 03:32:36;;;;;;;44.83;26.80;;;;;;;;;;2079640;28;20171;-57
2021/11/16 03:33:37;;;;;;;42.00;25.57;;;;;;;;;;2081243;28;20172;-55
2021/11/16 03:34:41;;;;;;;41.00;25.20;;;;;;;;;;2081490;28;20184;-54
2021/11/16 03:35:41;;;;;;;44.20;25.77;;;;;;;;;;2081471;28;20184;-55
2021/11/16 03:36:42;;;;;;;40.47;25.47;;;;;;;;;;2082470;28;20215;-56
2021/11/16 03:37:46;;;;;;;39.77;24.57;;;;;;;;;;2076007;28;20162;-57
2021/11/16 03:38:47;;;;;;;43.23;26.47;;;;;;;;;;2082169;28;20275;-58
2021/11/16 03:39:48;;;;;;;46.93;27.53;;;;;;;;;;2082643;28;20303;-57
2021/11/16 03:40:51;;;;;;;42.73;24.77;;;;;;;;;;2073913;28;20204;-57
2021/11/16 03:41:52;;;;;;;42.60;27.40;;;;;;;;;;2082558;28;20660;-54
2021/11/16 03:42:52;;;;;;;41.93;25.87;;;;;;;;;;2080351;28;20172;-59
2021/11/16 03:43:54;;;;;;;43.30;28.37;;;;;;;;;;2082129;28;20188;-54
2021/11/16 03:44:54;;;;;;;43.50;27.03;;;;;;;;;;2081409;28;20199;-53
2021/11/16 03:45:57;;;;;;;47.03;27.07;;;;;;;;;;2080458;28;20570;-53
2021/11/16 03:46:57;;;;;;;47.23;26.60;;;;;;;;;;2081528;28;20286;-53
2021/11/16 03:47:58;;;;;;;42.17;26.20;;;;;;;;;;2081161;28;20576;-54
2021/11/16 03:48:58;;;;;;;46.50;27.40;;;;;;;;;;2080794;28;20224;-54
2021/11/16 03:49:58;;;;;;;45.83;26.93;;;;;;;;;;2083192;28;20168;-59
2021/11/16 03:50:58;;;;;;;46.37;28.27;;;;;;;;;;2082427;28;20720;-59
2021/11/16 03:51:59;;;;;;;49.73;29.73;;;;;;;;;;2077932;28;20192;-58
2021/11/16 03:53:00;;;;;;;50.57;29.63;;;;;;;;;;2079364;28;20181;-57
2021/11/16 03:54:00;;;;;;;52.93;29.57;;;;;;;;;;2083826;28;20273;-58
2021/11/16 03:55:01;;;;;;;55.93;32.00;;;;;;;;;;2083888;28;20184;-57
2021/11/16 03:56:02;;;;;;;55.77;32.53;;;;;;;;;;2083344;28;20244;-57
2021/11/16 03:57:02;;;;;;;60.47;32.63;;;;;;;;;;2084358;28;20670;-57
2021/11/16 03:58:03;;;;;;;55.93;32.53;;;;;;;;;;2084656;28;20200;-57
2021/11/16 03:59:03;;;;;;;62.30;34.23;;;;;;;;;;2074030;28;20216;-55
2021/11/16 04:00:10;;;;;;;62.47;35.13;;;;;;;;;;2080841;28;20225;-55
2021/11/16 04:01:10;;;;;;;55.33;32.83;;;;;;;;;;2080589;28;20230;-56
2021/11/16 04:02:11;;;;;;;64.00;34.87;;;;;;;;;;2087238;28;20218;-56
2021/11/16 04:03:11;;;;;;;57.60;33.00;;;;;;;;;;2088662;28;20568;-54
2021/11/16 04:04:13;;;;;;;65.50;35.10;;;;;;;;;;2080412;28;20242;-56
2021/11/16 04:05:13;;;;;;;63.40;35.37;;;;;;;;;;2076500;28;20189;-55
2021/11/16 04:06:14;;;;;;;64.37;35.17;;;;;;;;;;2080685;28;20561;-57
2021/11/16 04:07:14;;;;;;;63.17;36.07;;;;;;;;;;2080971;28;20180;-57
2021/11/16 04:08:15;;;;;;;63.40;34.63;;;;;;;;;;2080008;28;20187;-56
2021/11/16 04:09:16;;;;;;;63.80;33.77;;;;;;;;;;2080822;28;20207;-57
2021/11/16 04:10:16;;;;;;;65.63;34.93;;;;;;;;;;2080470;28;20207;-57
2021/11/16 04:11:16;;;;;;;60.67;33.23;;;;;;;;;;2080415;28;20257;-57
2021/11/16 04:12:17;;;;;;;54.23;31.63;;;;;;;;;;2081704;28;20230;-56
2021/11/16 04:13:17;;;;;;;56.90;33.70;;;;;;;;;;2080911;28;20176;-55
2021/11/16 04:14:18;;;;;;;56.13;31.10;;;;;;;;;;2080629;28;20592;-58
2021/11/16 04:15:21;;;;;;;60.53;33.33;;;;;;;;;;2081527;28;20218;-57
2021/11/16 04:16:22;;;;;;;55.33;31.57;;;;;;;;;;2078609;28;20626;-55
2021/11/16 04:17:23;;;;;;;56.73;32.97;;;;;;;;;;2081727;28;20200;-54
2021/11/16 04:18:23;;;;;;;51.73;30.90;;;;;;;;;;2078330;28;20168;-55
2021/11/16 04:19:23;;;;;;;51.50;29.37;;;;;;;;;;2080854;28;20188;-57
2021/11/16 04:20:26;;;;;;;51.60;30.17;;;;;;;;;;2080274;28;20245;-56
2021/11/16 04:21:27;;;;;;;54.93;31.30;;;;;;;;;;2080991;28;20238;-54
2021/11/16 04:22:27;;;;;;;51.70;30.17;;;;;;;;;;2080169;28;20180;-57
2021/11/16 04:23:28;;;;;;;55.97;31.43;;;;;;;;;;2079010;28;20207;-57
2021/11/16 04:24:28;;;;;;;52.17;30.70;;;;;;;;;;2080508;28;20179;-53
2021/11/16 04:25:29;;;;;;;53.10;31.57;;;;;;;;;;2080772;28;20184;-56
2021/11/16 04:26:29;;;;;;;48.77;29.73;;;;;;;;;;2080875;28;20204;-56
2021/11/16 04:27:30;;;;;;;53.53;31.53;;;;;;;;;;2079136;28;20250;-57
2021/11/16 04:28:30;;;;;;;54.50;31.17;;;;;;;;;;2078843;28;20190;-55
2021/11/16 04:29:30;;;;;;;57.77;32.30;;;;;;;;;;2080468;28;20177;-54
2021/11/16 04:30:31;;;;;;;51.97;30.70;;;;;;;;;;2078710;28;20188;-57
2021/11/16 04:31:31;;;;;;;60.00;32.27;;;;;;;;;;2079325;28;20183;-57
2021/11/16 04:32:32;;;;;;;53.10;29.10;;;;;;;;;;2081319;28;20188;-58
2021/11/16 04:33:32;;;;;;;44.47;26.80;;;;;;;;;;2081571;28;20180;-56
2021/11/16 04:34:32;;;;;;;45.13;26.40;;;;;;;;;;2081467;28;20191;-57
2021/11/16 04:35:33;;;;;;;48.93;26.73;;;;;;;;;;2077232;28;20176;-57
2021/11/16 04:36:34;;;;;;;43.97;25.77;;;;;;;;;;2073508;28;20575;-58
2021/11/16 04:37:35;;;;;;;45.97;25.10;;;;;;;;;;2075987;28;20176;-56
2021/11/16 04:38:35;;;;;;;46.93;27.27;;;;;;;;;;2072891;28;20191;-54
2021/11/16 04:39:35;;;;;;;41.97;25.63;;;;;;;;;;2070054;28;20189;-57
2021/11/16 04:40:38;;;;;;;43.93;25.53;;;;;;;;;;2078790;28;20169;-56
2021/11/16 04:41:39;;;;;;;41.67;24.67;;;;;;;;;;2080950;28;20199;-55
2021/11/16 04:42:39;;;;;;;41.87;24.03;;;;;;;;;;2081100;28;20176;-57
2021/11/16 04:43:39;;;;;;;39.87;24.83;;;;;;;;;;2079461;28;20717;-55
2021/11/16 04:44:41;;;;;;;37.50;23.93;;;;;;;;;;2079771;28;20173;-58
2021/11/16 04:45:42;;;;;;;43.00;24.70;;;;;;;;;;2080406;28;20180;-58
2021/11/16 04:46:42;;;;;;;42.23;25.07;;;;;;;;;;2080350;28;20175;-58
2021/11/16 04:47:50;;;;;;;41.80;25.57;;;;;;;;;;2080301;28;20247;-57
2021/11/16 04:48:56;;;;;;;42.93;24.80;;;;;;;;;;2072785;28;20280;-57
2021/11/16 04:50:05;;;;;;;42.03;24.83;;;;;;;;;;2072745;28;20177;-54
2021/11/16 04:51:30;;;;;;;43.10;25.40;;;;;;;;;;2072647;28;20730;-55
2021/11/16 04:52:43;;;;;;;39.67;23.00;;;;;;;;;;2077616;28;20275;-56
2021/11/16 04:59:53;;;;;;;44.70;24.47;;;;;;;;;;2063150;28;20751;-56
2021/11/16 05:03:31;;;;;;;38.73;24.13;;;;;;;;;;2080144;28;20579;-57
2021/11/16 05:04:31;;;;;;;41.20;23.57;;;;;;;;;;2080979;28;20165;-57
2021/11/16 05:05:32;;;;;;;38.77;23.50;;;;;;;;;;2080095;28;20188;-57
2021/11/16 05:06:32;;;;;;;42.38;23.50;;;;;;;;;;2081282;28;20656;-56
2021/11/16 05:07:33;;;;;;;42.87;24.87;;;;;;;;;;2080553;28;20637;-55
2021/11/16 05:08:33;;;;;;;43.77;25.07;;;;;;;;;;2078776;28;20180;-54
2021/11/16 05:09:33;;;;;;;39.93;24.77;;;;;;;;;;2079697;28;20208;-54
2021/11/16 05:10:33;;;;;;;41.90;25.53;;;;;;;;;;2080840;28;20241;-55
2021/11/16 05:11:34;;;;;;;40.67;22.63;;;;;;;;;;2080204;28;20194;-57
2021/11/16 05:12:35;;;;;;;39.90;23.93;;;;;;;;;;2079453;28;20175;-56
2021/11/16 05:13:37;;;;;;;42.70;23.93;;;;;;;;;;2079171;28;20200;-56
2021/11/16 05:14:37;;;;;;;41.77;25.17;;;;;;;;;;2080273;28;20183;-56
2021/11/16 05:15:40;;;;;;;43.77;24.33;;;;;;;;;;2080544;28;20165;-55
2021/11/16 05:16:41;;;;;;;41.97;25.07;;;;;;;;;;2080208;28;20559;-56
2021/11/16 05:17:46;;;;;;;42.10;23.87;;;;;;;;;;2080106;28;20204;-57
2021/11/16 05:18:47;;;;;;;38.63;23.90;;;;;;;;;;2080784;28;20314;-56
2021/11/16 05:19:47;;;;;;;41.47;24.20;;;;;;;;;;2081368;28;20164;-56
2021/11/16 05:20:48;;;;;;;41.17;23.07;;;;;;;;;;2080076;28;20198;-56
2021/11/16 05:21:49;;;;;;;39.43;24.20;;;;;;;;;;2080905;28;20855;-59
2021/11/16 05:22:52;;;;;;;38.60;23.43;;;;;;;;;;2081239;28;20211;-63
2021/11/16 05:23:54;;;;;;;42.60;24.60;;;;;;;;;;2081190;28;20176;-55
2021/11/16 05:24:54;;;;;;;39.90;23.23;;;;;;;;;;2080720;28;20250;-56
2021/11/16 05:25:55;;;;;;;40.00;25.37;;;;;;;;;;2080906;28;20186;-55
2021/11/16 05:26:55;;;;;;;39.47;23.17;;;;;;;;;;2080942;28;20683;-55
2021/11/16 05:27:55;;;;;;;43.20;24.93;;;;;;;;;;2072929;28;20268;-55
2021/11/16 05:28:57;;;;;;;44.33;25.53;;;;;;;;;;2080921;28;20184;-54
2021/11/16 05:29:57;;;;;;;43.53;24.20;;;;;;;;;;2081814;28;20547;-56
2021/11/16 05:30:58;;;;;;;43.93;26.00;;;;;;;;;;2081334;28;20176;-55
2021/11/16 05:31:58;;;;;;;44.23;24.37;;;;;;;;;;2081112;28;20559;-57
2021/11/16 05:32:58;;;;;;;43.47;24.93;;;;;;;;;;2081431;28;20184;-54
2021/11/16 05:33:58;;;;;;;44.07;26.90;;;;;;;;;;2081624;28;20187;-56
2021/11/16 05:34:59;;;;;;;44.97;25.30;;;;;;;;;;2081940;28;20176;-56
2021/11/16 05:35:59;;;;;;;43.50;25.00;;;;;;;;;;2081217;28;20207;-56
2021/11/16 05:37:00;;;;;;;44.93;24.63;;;;;;;;;;2081724;28;20217;-56
2021/11/16 05:38:00;;;;;;;44.53;25.37;;;;;;;;;;2081474;28;20187;-56
2021/11/16 05:39:01;;;;;;;44.03;25.47;;;;;;;;;;2081471;28;20192;-56
2021/11/16 05:40:02;;;;;;;44.57;26.17;;;;;;;;;;2081437;28;20172;-56
2021/11/16 05:41:03;;;;;;;47.50;26.13;;;;;;;;;;2081239;28;20218;-55
2021/11/16 05:42:04;;;;;;;45.40;25.63;;;;;;;;;;2081604;28;20165;-57
2021/11/16 05:43:04;;;;;;;41.95;24.73;;;;;;;;;;2081284;28;20203;-57
2021/11/16 05:44:05;;;;;;;42.27;23.87;;;;;;;;;;2078190;28;20185;-55
2021/11/16 05:45:05;;;;;;;43.67;25.60;;;;;;;;;;2069925;28;20176;-55
2021/11/16 05:46:06;;;;;;;44.93;24.13;;;;;;;;;;2080906;28;20184;-55
2021/11/16 05:47:06;;;;;;;40.80;25.07;;;;;;;;;;2080872;28;20176;-53
2021/11/16 05:48:06;;;;;;;41.07;24.83;;;;;;;;;;2080955;28;20248;-57
2021/11/16 05:49:07;;;;;;;47.60;25.93;;;;;;;;;;2097495;28;20244;-62
2021/11/16 05:50:07;;;;;;;38.43;23.13;;;;;;;;;;2095294;28;20615;-56
2021/11/16 05:51:08;;;;;;;41.20;25.57;;;;;;;;;;2081281;28;20176;-55
2021/11/16 05:52:08;;;;;;;40.93;24.57;;;;;;;;;;2081259;28;20222;-56
2021/11/16 05:53:09;;;;;;;42.53;24.93;;;;;;;;;;2086838;28;20177;-58
2021/11/16 05:54:17;;;;;;;38.17;23.83;;;;;;;;;;2087178;28;20168;-57
2021/11/16 05:55:17;;;;;;;43.30;24.23;;;;;;;;;;2086317;28;20192;-57
2021/11/16 05:56:22;;;;;;;45.20;24.57;;;;;;;;;;2087912;28;20216;-56
2021/11/16 05:57:22;;;;;;;40.77;23.33;;;;;;;;;;2089845;28;20173;-62
2021/11/16 05:58:23;;;;;;;50.00;25.73;;;;;;;;;;2087410;28;20538;-58
2021/11/16 05:59:26;;;;;;;42.37;24.20;;;;;;;;;;2088003;28;20188;-57
2021/11/16 06:00:27;;;;;;;41.57;24.87;;;;;;;;;;2087255;28;20172;-58
2021/11/16 06:01:28;;;;;;;44.80;24.60;;;;;;;;;;2086982;28;20180;-57
2021/11/16 06:02:29;;;;;;;40.20;24.97;;;;;;;;;;2086946;28;20176;-58
2021/11/16 06:03:29;;;;;;;42.00;23.83;;;;;;;;;;2086343;28;20176;-56
2021/11/16 06:04:29;;;;;;;40.93;24.70;;;;;;;;;;2079532;28;20165;-57
2021/11/16 06:05:30;;;;;;;43.73;26.30;;;;;;;;;;2085021;28;20186;-62